sensor_id;sensor_type;location;lat;lon;timestamp;P1;P2;P0
55276;PMS5003;41136;51.478;-2.610;2023-11-21T00:01:00;1;1;
55276;PMS5003;41136;51.478;-2.610;2023-11-21T00:03:26;1;1;
55276;PMS5003;41136;51.478;-2.610;2023-11-21T00:05:51;1;1;
55276;PMS5003;41136;51.478;-2.610;2023-11-21T00:08:16;0;0;
55276;PMS5003;41136;51.478;-2.610;2023-11-21T00:10:42;1;0;
55276;PMS5003;41136;51.478;-2.610;2023-11-21T00:13:07;1;1;
55276;PMS5003;41136;51.478;-2.610;2023-11-21T00:15:32;1;1;
55276;PMS5003;41136;51.478;-2.610;2023-11-21T00:17:58;0;0;
55276;PMS5003;41136;51.478;-2.610;2023-11-21T00:20:23;0;0;
55276;PMS5003;41136;51.478;-2.610;2023-11-21T00:22:48;1;1;
55276;PMS5003;41136;51.478;-2.610;2023-11-21T00:25:14;0;0;
55276;PMS5003;41136;51.478;-2.610;2023-11-21T00:27:39;1;0;
55276;PMS5003;41136;51.478;-2.610;2023-11-21T00:30:05;0;0;
55276;PMS5003;41136;51.478;-2.610;2023-11-21T00:32:30;1;1;
55276;PMS5003;41136;51.478;-2.610;2023-11-21T00:34:55;0;0;
55276;PMS5003;41136;51.478;-2.610;2023-11-21T00:37:20;1;0;
55276;PMS5003;41136;51.478;-2.610;2023-11-21T00:39:45;2;2;
55276;PMS5003;41136;51.478;-2.610;2023-11-21T00:42:11;1;0;
55276;PMS5003;41136;51.478;-2.610;2023-11-21T00:44:37;1;1;
55276;PMS5003;41136;51.478;-2.610;2023-11-21T00:47:01;1;1;
55276;PMS5003;41136;51.478;-2.610;2023-11-21T00:49:27;1;1;
55276;PMS5003;41136;51.478;-2.610;2023-11-21T00:51:52;0;0;
55276;PMS5003;41136;51.478;-2.610;2023-11-21T00:54:17;1;1;
55276;PMS5003;41136;51.478;-2.610;2023-11-21T00:56:43;0;0;
55276;PMS5003;41136;51.478;-2.610;2023-11-21T00:59:08;1;1;
55276;PMS5003;41136;51.478;-2.610;2023-11-21T01:01:33;1;1;
55276;PMS5003;41136;51.478;-2.610;2023-11-21T01:03:59;0;0;
55276;PMS5003;41136;51.478;-2.610;2023-11-21T01:06:24;0;0;
55276;PMS5003;41136;51.478;-2.610;2023-11-21T01:08:49;1;1;
55276;PMS5003;41136;51.478;-2.610;2023-11-21T01:11:15;1;1;
55276;PMS5003;41136;51.478;-2.610;2023-11-21T01:13:40;0;0;
55276;PMS5003;41136;51.478;-2.610;2023-11-21T01:16:05;0;0;
55276;PMS5003;41136;51.478;-2.610;2023-11-21T01:18:31;2;0;
55276;PMS5003;41136;51.478;-2.610;2023-11-21T01:20:56;0;0;
55276;PMS5003;41136;51.478;-2.610;2023-11-21T01:23:21;0;0;
55276;PMS5003;41136;51.478;-2.610;2023-11-21T01:25:46;0;0;
55276;PMS5003;41136;51.478;-2.610;2023-11-21T01:28:12;0;0;
55276;PMS5003;41136;51.478;-2.610;2023-11-21T01:30:37;0;0;
55276;PMS5003;41136;51.478;-2.610;2023-11-21T01:33:02;0;0;
55276;PMS5003;41136;51.478;-2.610;2023-11-21T01:35:28;2;1;
55276;PMS5003;41136;51.478;-2.610;2023-11-21T01:37:53;1;0;
55276;PMS5003;41136;51.478;-2.610;2023-11-21T01:40:19;1;1;
55276;PMS5003;41136;51.478;-2.610;2023-11-21T01:46:38;0;0;
55276;PMS5003;41136;51.478;-2.610;2023-11-21T01:49:03;1;1;
55276;PMS5003;41136;51.478;-2.610;2023-11-21T01:51:29;0;0;
55276;PMS5003;41136;51.478;-2.610;2023-11-21T01:53:54;0;0;
55276;PMS5003;41136;51.478;-2.610;2023-11-21T01:56:19;0;0;
55276;PMS5003;41136;51.478;-2.610;2023-11-21T01:58:45;0;0;
55276;PMS5003;41136;51.478;-2.610;2023-11-21T02:01:10;2;2;
55276;PMS5003;41136;51.478;-2.610;2023-11-21T02:03:35;1;1;
55276;PMS5003;41136;51.478;-2.610;2023-11-21T02:06:01;2;2;
55276;PMS5003;41136;51.478;-2.610;2023-11-21T02:08:26;2;1;
55276;PMS5003;41136;51.478;-2.610;2023-11-21T02:10:51;0;0;
55276;PMS5003;41136;51.478;-2.610;2023-11-21T02:13:17;1;1;
55276;PMS5003;41136;51.478;-2.610;2023-11-21T02:15:42;1;1;
55276;PMS5003;41136;51.478;-2.610;2023-11-21T02:18:07;1;0;
55276;PMS5003;41136;51.478;-2.610;2023-11-21T02:20:32;0;0;
55276;PMS5003;41136;51.478;-2.610;2023-11-21T02:22:58;0;0;
55276;PMS5003;41136;51.478;-2.610;2023-11-21T02:25:23;1;1;
55276;PMS5003;41136;51.478;-2.610;2023-11-21T02:27:48;0;0;
55276;PMS5003;41136;51.478;-2.610;2023-11-21T02:30:14;1;1;
55276;PMS5003;41136;51.478;-2.610;2023-11-21T02:32:39;0;0;
55276;PMS5003;41136;51.478;-2.610;2023-11-21T02:35:05;0;0;
55276;PMS5003;41136;51.478;-2.610;2023-11-21T02:37:30;0;0;
55276;PMS5003;41136;51.478;-2.610;2023-11-21T02:39:55;0;0;
55276;PMS5003;41136;51.478;-2.610;2023-11-21T02:42:20;1;1;
55276;PMS5003;41136;51.478;-2.610;2023-11-21T02:44:46;1;1;
55276;PMS5003;41136;51.478;-2.610;2023-11-21T02:47:11;1;1;
55276;PMS5003;41136;51.478;-2.610;2023-11-21T02:49:36;3;3;
55276;PMS5003;41136;51.478;-2.610;2023-11-21T02:52:02;1;1;
55276;PMS5003;41136;51.478;-2.610;2023-11-21T02:54:27;1;1;
55276;PMS5003;41136;51.478;-2.610;2023-11-21T02:56:52;1;1;
55276;PMS5003;41136;51.478;-2.610;2023-11-21T02:59:18;2;2;
55276;PMS5003;41136;51.478;-2.610;2023-11-21T03:01:43;2;2;
55276;PMS5003;41136;51.478;-2.610;2023-11-21T03:04:08;2;2;
55276;PMS5003;41136;51.478;-2.610;2023-11-21T03:06:34;2;1;
55276;PMS5003;41136;51.478;-2.610;2023-11-21T03:08:59;2;2;
55276;PMS5003;41136;51.478;-2.610;2023-11-21T03:11:24;2;2;
55276;PMS5003;41136;51.478;-2.610;2023-11-21T03:13:50;2;2;
55276;PMS5003;41136;51.478;-2.610;2023-11-21T03:16:15;3;2;
55276;PMS5003;41136;51.478;-2.610;2023-11-21T03:18:40;2;2;
55276;PMS5003;41136;51.478;-2.610;2023-11-21T03:21:06;5;5;
55276;PMS5003;41136;51.478;-2.610;2023-11-21T03:23:31;3;2;
55276;PMS5003;41136;51.478;-2.610;2023-11-21T03:25:56;4;2;
55276;PMS5003;41136;51.478;-2.610;2023-11-21T03:28:22;4;3;
55276;PMS5003;41136;51.478;-2.610;2023-11-21T03:30:47;3;3;
55276;PMS5003;41136;51.478;-2.610;2023-11-21T03:33:12;3;3;
55276;PMS5003;41136;51.478;-2.610;2023-11-21T03:35:38;6;5;
55276;PMS5003;41136;51.478;-2.610;2023-11-21T03:38:04;7;4;
55276;PMS5003;41136;51.478;-2.610;2023-11-21T03:40:29;7;7;
55276;PMS5003;41136;51.478;-2.610;2023-11-21T03:42:54;8;8;
55276;PMS5003;41136;51.478;-2.610;2023-11-21T03:45:20;7;7;
55276;PMS5003;41136;51.478;-2.610;2023-11-21T03:47:45;7;6;
55276;PMS5003;41136;51.478;-2.610;2023-11-21T03:50:10;7;7;
55276;PMS5003;41136;51.478;-2.610;2023-11-21T03:52:37;7;6;
55276;PMS5003;41136;51.478;-2.610;2023-11-21T03:55:01;7;7;
55276;PMS5003;41136;51.478;-2.610;2023-11-21T03:57:26;7;6;
55276;PMS5003;41136;51.478;-2.610;2023-11-21T03:59:51;10;10;
55276;PMS5003;41136;51.478;-2.610;2023-11-21T04:02:17;9;6;
55276;PMS5003;41136;51.478;-2.610;2023-11-21T04:04:42;9;9;
55276;PMS5003;41136;51.478;-2.610;2023-11-21T04:07:07;8;8;
55276;PMS5003;41136;51.478;-2.610;2023-11-21T04:09:32;8;7;
55276;PMS5003;41136;51.478;-2.610;2023-11-21T04:11:58;11;10;
55276;PMS5003;41136;51.478;-2.610;2023-11-21T04:14:23;12;12;
55276;PMS5003;41136;51.478;-2.610;2023-11-21T04:16:49;12;10;
55276;PMS5003;41136;51.478;-2.610;2023-11-21T04:19:14;16;13;
55276;PMS5003;41136;51.478;-2.610;2023-11-21T04:21:39;8;8;
55276;PMS5003;41136;51.478;-2.610;2023-11-21T04:24:05;9;9;
55276;PMS5003;41136;51.478;-2.610;2023-11-21T04:26:29;11;11;
55276;PMS5003;41136;51.478;-2.610;2023-11-21T04:28:55;8;8;
55276;PMS5003;41136;51.478;-2.610;2023-11-21T04:31:20;8;7;
55276;PMS5003;41136;51.478;-2.610;2023-11-21T04:37:26;6;6;
55276;PMS5003;41136;51.478;-2.610;2023-11-21T04:43:55;4;4;
55276;PMS5003;41136;51.478;-2.610;2023-11-21T04:46:20;5;5;
55276;PMS5003;41136;51.478;-2.610;2023-11-21T04:48:46;4;4;
55276;PMS5003;41136;51.478;-2.610;2023-11-21T04:51:11;6;5;
55276;PMS5003;41136;51.478;-2.610;2023-11-21T04:53:36;5;4;
55276;PMS5003;41136;51.478;-2.610;2023-11-21T04:56:02;5;5;
55276;PMS5003;41136;51.478;-2.610;2023-11-21T04:58:27;5;5;
55276;PMS5003;41136;51.478;-2.610;2023-11-21T05:00:53;5;5;
55276;PMS5003;41136;51.478;-2.610;2023-11-21T05:03:18;6;5;
55276;PMS5003;41136;51.478;-2.610;2023-11-21T05:05:43;4;4;
55276;PMS5003;41136;51.478;-2.610;2023-11-21T05:08:09;3;3;
55276;PMS5003;41136;51.478;-2.610;2023-11-21T05:10:34;4;4;
55276;PMS5003;41136;51.478;-2.610;2023-11-21T05:12:59;3;3;
55276;PMS5003;41136;51.478;-2.610;2023-11-21T05:15:25;2;2;
55276;PMS5003;41136;51.478;-2.610;2023-11-21T05:17:50;2;2;
55276;PMS5003;41136;51.478;-2.610;2023-11-21T05:20:16;3;3;
55276;PMS5003;41136;51.478;-2.610;2023-11-21T05:22:41;2;2;
55276;PMS5003;41136;51.478;-2.610;2023-11-21T05:25:06;2;2;
55276;PMS5003;41136;51.478;-2.610;2023-11-21T05:27:31;2;2;
55276;PMS5003;41136;51.478;-2.610;2023-11-21T05:29:57;3;3;
55276;PMS5003;41136;51.478;-2.610;2023-11-21T05:32:22;1;1;
55276;PMS5003;41136;51.478;-2.610;2023-11-21T05:34:48;2;2;
55276;PMS5003;41136;51.478;-2.610;2023-11-21T05:37:13;2;2;
55276;PMS5003;41136;51.478;-2.610;2023-11-21T05:39:38;2;2;
55276;PMS5003;41136;51.478;-2.610;2023-11-21T05:42:04;1;1;
55276;PMS5003;41136;51.478;-2.610;2023-11-21T05:44:29;2;2;
55276;PMS5003;41136;51.478;-2.610;2023-11-21T05:46:54;1;1;
55276;PMS5003;41136;51.478;-2.610;2023-11-21T05:49:20;2;2;
55276;PMS5003;41136;51.478;-2.610;2023-11-21T05:51:45;3;3;
55276;PMS5003;41136;51.478;-2.610;2023-11-21T05:54:10;2;2;
55276;PMS5003;41136;51.478;-2.610;2023-11-21T05:56:36;1;1;
55276;PMS5003;41136;51.478;-2.610;2023-11-21T05:59:01;2;2;
55276;PMS5003;41136;51.478;-2.610;2023-11-21T06:01:27;3;2;
55276;PMS5003;41136;51.478;-2.610;2023-11-21T06:03:52;2;1;
55276;PMS5003;41136;51.478;-2.610;2023-11-21T06:06:17;1;1;
55276;PMS5003;41136;51.478;-2.610;2023-11-21T06:08:42;4;2;
55276;PMS5003;41136;51.478;-2.610;2023-11-21T06:11:08;1;1;
55276;PMS5003;41136;51.478;-2.610;2023-11-21T06:13:33;1;1;
55276;PMS5003;41136;51.478;-2.610;2023-11-21T06:15:59;1;1;
55276;PMS5003;41136;51.478;-2.610;2023-11-21T06:18:24;3;1;
55276;PMS5003;41136;51.478;-2.610;2023-11-21T06:20:49;1;1;
55276;PMS5003;41136;51.478;-2.610;2023-11-21T06:23:15;2;2;
55276;PMS5003;41136;51.478;-2.610;2023-11-21T06:25:40;2;2;
55276;PMS5003;41136;51.478;-2.610;2023-11-21T06:28:05;3;2;
55276;PMS5003;41136;51.478;-2.610;2023-11-21T06:30:31;3;3;
55276;PMS5003;41136;51.478;-2.610;2023-11-21T06:32:56;3;3;
55276;PMS5003;41136;51.478;-2.610;2023-11-21T06:35:22;3;3;
55276;PMS5003;41136;51.478;-2.610;2023-11-21T06:37:47;3;2;
55276;PMS5003;41136;51.478;-2.610;2023-11-21T06:40:12;2;2;
55276;PMS5003;41136;51.478;-2.610;2023-11-21T06:42:38;2;2;
55276;PMS5003;41136;51.478;-2.610;2023-11-21T06:45:03;2;2;
55276;PMS5003;41136;51.478;-2.610;2023-11-21T06:47:28;2;2;
55276;PMS5003;41136;51.478;-2.610;2023-11-21T06:49:54;1;1;
55276;PMS5003;41136;51.478;-2.610;2023-11-21T06:52:19;2;2;
55276;PMS5003;41136;51.478;-2.610;2023-11-21T06:54:44;1;1;
55276;PMS5003;41136;51.478;-2.610;2023-11-21T06:57:10;1;1;
55276;PMS5003;41136;51.478;-2.610;2023-11-21T06:59:35;1;1;
55276;PMS5003;41136;51.478;-2.610;2023-11-21T07:02:01;1;1;
55276;PMS5003;41136;51.478;-2.610;2023-11-21T07:04:26;1;1;
55276;PMS5003;41136;51.478;-2.610;2023-11-21T07:06:53;2;1;
55276;PMS5003;41136;51.478;-2.610;2023-11-21T07:09:17;1;1;
55276;PMS5003;41136;51.478;-2.610;2023-11-21T07:11:42;2;2;
55276;PMS5003;41136;51.478;-2.610;2023-11-21T07:14:07;1;1;
55276;PMS5003;41136;51.478;-2.610;2023-11-21T07:16:33;1;1;
55276;PMS5003;41136;51.478;-2.610;2023-11-21T07:18:58;0;0;
55276;PMS5003;41136;51.478;-2.610;2023-11-21T07:21:23;1;1;
55276;PMS5003;41136;51.478;-2.610;2023-11-21T07:23:49;1;1;
55276;PMS5003;41136;51.478;-2.610;2023-11-21T07:26:14;1;1;
55276;PMS5003;41136;51.478;-2.610;2023-11-21T07:28:39;0;0;
55276;PMS5003;41136;51.478;-2.610;2023-11-21T07:31:05;1;1;
55276;PMS5003;41136;51.478;-2.610;2023-11-21T07:33:30;0;0;
55276;PMS5003;41136;51.478;-2.610;2023-11-21T07:35:56;1;1;
55276;PMS5003;41136;51.478;-2.610;2023-11-21T07:38:21;0;0;
55276;PMS5003;41136;51.478;-2.610;2023-11-21T07:40:46;1;1;
55276;PMS5003;41136;51.478;-2.610;2023-11-21T07:43:12;1;1;
55276;PMS5003;41136;51.478;-2.610;2023-11-21T07:45:37;3;1;
55276;PMS5003;41136;51.478;-2.610;2023-11-21T07:48:03;6;3;
55276;PMS5003;41136;51.478;-2.610;2023-11-21T07:50:28;2;0;
55276;PMS5003;41136;51.478;-2.610;2023-11-21T07:52:53;0;0;
55276;PMS5003;41136;51.478;-2.610;2023-11-21T07:55:18;1;1;
55276;PMS5003;41136;51.478;-2.610;2023-11-21T07:57:44;1;0;
55276;PMS5003;41136;51.478;-2.610;2023-11-21T08:00:10;0;0;
55276;PMS5003;41136;51.478;-2.610;2023-11-21T08:02:35;1;1;
55276;PMS5003;41136;51.478;-2.610;2023-11-21T08:05:00;3;3;
55276;PMS5003;41136;51.478;-2.610;2023-11-21T08:07:26;17;14;
55276;PMS5003;41136;51.478;-2.610;2023-11-21T08:09:51;3;2;
55276;PMS5003;41136;51.478;-2.610;2023-11-21T08:12:16;3;3;
55276;PMS5003;41136;51.478;-2.610;2023-11-21T08:14:41;9;9;
55276;PMS5003;41136;51.478;-2.610;2023-11-21T08:17:07;0;0;
55276;PMS5003;41136;51.478;-2.610;2023-11-21T08:19:32;2;2;
55276;PMS5003;41136;51.478;-2.610;2023-11-21T08:21:57;0;0;
55276;PMS5003;41136;51.478;-2.610;2023-11-21T08:24:23;2;2;
55276;PMS5003;41136;51.478;-2.610;2023-11-21T08:26:48;1;1;
55276;PMS5003;41136;51.478;-2.610;2023-11-21T08:29:14;1;1;
55276;PMS5003;41136;51.478;-2.610;2023-11-21T08:31:39;2;2;
55276;PMS5003;41136;51.478;-2.610;2023-11-21T08:34:04;1;1;
55276;PMS5003;41136;51.478;-2.610;2023-11-21T08:36:30;2;1;
55276;PMS5003;41136;51.478;-2.610;2023-11-21T08:38:55;1;1;
55276;PMS5003;41136;51.478;-2.610;2023-11-21T08:41:20;1;0;
55276;PMS5003;41136;51.478;-2.610;2023-11-21T08:43:46;1;0;
55276;PMS5003;41136;51.478;-2.610;2023-11-21T08:46:11;2;2;
55276;PMS5003;41136;51.478;-2.610;2023-11-21T08:48:36;1;1;
55276;PMS5003;41136;51.478;-2.610;2023-11-21T08:51:02;0;0;
55276;PMS5003;41136;51.478;-2.610;2023-11-21T08:53:27;0;0;
55276;PMS5003;41136;51.478;-2.610;2023-11-21T08:55:52;0;0;
55276;PMS5003;41136;51.478;-2.610;2023-11-21T08:58:18;1;1;
55276;PMS5003;41136;51.478;-2.610;2023-11-21T09:00:43;0;0;
55276;PMS5003;41136;51.478;-2.610;2023-11-21T09:03:09;0;0;
55276;PMS5003;41136;51.478;-2.610;2023-11-21T09:05:37;0;0;
55276;PMS5003;41136;51.478;-2.610;2023-11-21T09:07:59;0;0;
55276;PMS5003;41136;51.478;-2.610;2023-11-21T09:10:25;1;1;
55276;PMS5003;41136;51.478;-2.610;2023-11-21T09:12:50;1;1;
55276;PMS5003;41136;51.478;-2.610;2023-11-21T09:15:15;0;0;
55276;PMS5003;41136;51.478;-2.610;2023-11-21T09:17:41;1;1;
55276;PMS5003;41136;51.478;-2.610;2023-11-21T09:20:07;0;0;
55276;PMS5003;41136;51.478;-2.610;2023-11-21T09:22:31;0;0;
55276;PMS5003;41136;51.478;-2.610;2023-11-21T09:24:57;1;1;
55276;PMS5003;41136;51.478;-2.610;2023-11-21T09:27:22;0;0;
55276;PMS5003;41136;51.478;-2.610;2023-11-21T09:29:47;0;0;
55276;PMS5003;41136;51.478;-2.610;2023-11-21T09:32:14;1;0;
55276;PMS5003;41136;51.478;-2.610;2023-11-21T09:34:38;0;0;
55276;PMS5003;41136;51.478;-2.610;2023-11-21T09:37:03;1;1;
55276;PMS5003;41136;51.478;-2.610;2023-11-21T09:39:29;2;0;
55276;PMS5003;41136;51.478;-2.610;2023-11-21T09:41:56;1;1;
55276;PMS5003;41136;51.478;-2.610;2023-11-21T09:44:22;0;0;
55276;PMS5003;41136;51.478;-2.610;2023-11-21T09:46:47;2;0;
55276;PMS5003;41136;51.478;-2.610;2023-11-21T09:49:10;1;1;
55276;PMS5003;41136;51.478;-2.610;2023-11-21T09:51:36;0;0;
55276;PMS5003;41136;51.478;-2.610;2023-11-21T09:54:01;0;0;
55276;PMS5003;41136;51.478;-2.610;2023-11-21T09:56:26;0;0;
55276;PMS5003;41136;51.478;-2.610;2023-11-21T09:58:52;1;1;
55276;PMS5003;41136;51.478;-2.610;2023-11-21T10:01:17;0;0;
55276;PMS5003;41136;51.478;-2.610;2023-11-21T10:03:42;0;0;
55276;PMS5003;41136;51.478;-2.610;2023-11-21T10:06:08;1;1;
55276;PMS5003;41136;51.478;-2.610;2023-11-21T10:08:33;3;3;
55276;PMS5003;41136;51.478;-2.610;2023-11-21T10:10:58;1;1;
55276;PMS5003;41136;51.478;-2.610;2023-11-21T10:13:24;1;0;
55276;PMS5003;41136;51.478;-2.610;2023-11-21T10:15:50;1;1;
55276;PMS5003;41136;51.478;-2.610;2023-11-21T10:18:15;0;0;
55276;PMS5003;41136;51.478;-2.610;2023-11-21T10:20:40;1;1;
55276;PMS5003;41136;51.478;-2.610;2023-11-21T10:23:05;1;1;
55276;PMS5003;41136;51.478;-2.610;2023-11-21T10:25:31;2;2;
55276;PMS5003;41136;51.478;-2.610;2023-11-21T10:27:57;1;1;
55276;PMS5003;41136;51.478;-2.610;2023-11-21T10:30:21;1;1;
55276;PMS5003;41136;51.478;-2.610;2023-11-21T10:32:47;1;1;
55276;PMS5003;41136;51.478;-2.610;2023-11-21T10:35:12;1;1;
55276;PMS5003;41136;51.478;-2.610;2023-11-21T10:37:37;2;2;
55276;PMS5003;41136;51.478;-2.610;2023-11-21T10:40:03;2;2;
55276;PMS5003;41136;51.478;-2.610;2023-11-21T10:42:28;2;2;
55276;PMS5003;41136;51.478;-2.610;2023-11-21T10:44:54;3;3;
55276;PMS5003;41136;51.478;-2.610;2023-11-21T10:47:19;4;2;
55276;PMS5003;41136;51.478;-2.610;2023-11-21T10:49:44;5;3;
55276;PMS5003;41136;51.478;-2.610;2023-11-21T10:52:09;4;3;
55276;PMS5003;41136;51.478;-2.610;2023-11-21T10:54:35;3;3;
55276;PMS5003;41136;51.478;-2.610;2023-11-21T10:57:00;4;4;
55276;PMS5003;41136;51.478;-2.610;2023-11-21T10:59:27;4;2;
55276;PMS5003;41136;51.478;-2.610;2023-11-21T11:01:51;2;2;
55276;PMS5003;41136;51.478;-2.610;2023-11-21T11:04:17;2;2;
55276;PMS5003;41136;51.478;-2.610;2023-11-21T11:06:42;2;2;
55276;PMS5003;41136;51.478;-2.610;2023-11-21T11:09:07;4;4;
55276;PMS5003;41136;51.478;-2.610;2023-11-21T11:11:32;3;3;
55276;PMS5003;41136;51.478;-2.610;2023-11-21T11:13:58;4;4;
55276;PMS5003;41136;51.478;-2.610;2023-11-21T11:16:23;3;3;
55276;PMS5003;41136;51.478;-2.610;2023-11-21T11:18:48;4;4;
55276;PMS5003;41136;51.478;-2.610;2023-11-21T11:21:19;3;3;
55276;PMS5003;41136;51.478;-2.610;2023-11-21T11:23:44;3;3;
55276;PMS5003;41136;51.478;-2.610;2023-11-21T11:26:07;3;3;
55276;PMS5003;41136;51.478;-2.610;2023-11-21T11:28:34;3;3;
55276;PMS5003;41136;51.478;-2.610;2023-11-21T11:31:00;3;3;
55276;PMS5003;41136;51.478;-2.610;2023-11-21T11:33:23;3;3;
55276;PMS5003;41136;51.478;-2.610;2023-11-21T11:35:50;4;3;
55276;PMS5003;41136;51.478;-2.610;2023-11-21T11:38:11;4;4;
55276;PMS5003;41136;51.478;-2.610;2023-11-21T11:40:40;4;4;
55276;PMS5003;41136;51.478;-2.610;2023-11-21T11:43:02;4;4;
55276;PMS5003;41136;51.478;-2.610;2023-11-21T11:45:31;3;3;
55276;PMS5003;41136;51.478;-2.610;2023-11-21T11:47:56;4;4;
55276;PMS5003;41136;51.478;-2.610;2023-11-21T11:50:18;4;4;
55276;PMS5003;41136;51.478;-2.610;2023-11-21T11:52:44;5;3;
55276;PMS5003;41136;51.478;-2.610;2023-11-21T11:55:09;5;5;
55276;PMS5003;41136;51.478;-2.610;2023-11-21T11:57:34;3;3;
55276;PMS5003;41136;51.478;-2.610;2023-11-21T12:02:25;2;2;
55276;PMS5003;41136;51.478;-2.610;2023-11-21T12:04:55;8;6;
55276;PMS5003;41136;51.478;-2.610;2023-11-21T12:07:15;7;6;
55276;PMS5003;41136;51.478;-2.610;2023-11-21T12:09:41;6;5;
55276;PMS5003;41136;51.478;-2.610;2023-11-21T12:12:06;5;3;
55276;PMS5003;41136;51.478;-2.610;2023-11-21T12:14:31;4;3;
55276;PMS5003;41136;51.478;-2.610;2023-11-21T12:16:57;5;5;
55276;PMS5003;41136;51.478;-2.610;2023-11-21T12:19:22;3;3;
55276;PMS5003;41136;51.478;-2.610;2023-11-21T12:21:48;5;5;
55276;PMS5003;41136;51.478;-2.610;2023-11-21T12:24:13;5;5;
55276;PMS5003;41136;51.478;-2.610;2023-11-21T12:26:38;4;4;
55276;PMS5003;41136;51.478;-2.610;2023-11-21T12:29:03;5;5;
55276;PMS5003;41136;51.478;-2.610;2023-11-21T12:31:29;4;4;
55276;PMS5003;41136;51.478;-2.610;2023-11-21T12:33:54;7;5;
55276;PMS5003;41136;51.478;-2.610;2023-11-21T12:36:19;6;5;
55276;PMS5003;41136;51.478;-2.610;2023-11-21T12:38:45;5;5;
55276;PMS5003;41136;51.478;-2.610;2023-11-21T12:41:10;6;6;
55276;PMS5003;41136;51.478;-2.610;2023-11-21T12:43:35;4;4;
55276;PMS5003;41136;51.478;-2.610;2023-11-21T12:46:04;6;5;
55276;PMS5003;41136;51.478;-2.610;2023-11-21T12:48:26;5;5;
55276;PMS5003;41136;51.478;-2.610;2023-11-21T12:50:52;5;5;
55276;PMS5003;41136;51.478;-2.610;2023-11-21T12:53:17;4;4;
55276;PMS5003;41136;51.478;-2.610;2023-11-21T12:55:43;4;4;
55276;PMS5003;41136;51.478;-2.610;2023-11-21T12:58:08;4;4;
55276;PMS5003;41136;51.478;-2.610;2023-11-21T13:00:34;4;4;
55276;PMS5003;41136;51.478;-2.610;2023-11-21T13:02:59;4;4;
55276;PMS5003;41136;51.478;-2.610;2023-11-21T13:05:24;6;3;
55276;PMS5003;41136;51.478;-2.610;2023-11-21T13:07:49;4;4;
55276;PMS5003;41136;51.478;-2.610;2023-11-21T13:10:14;8;5;
55276;PMS5003;41136;51.478;-2.610;2023-11-21T13:12:42;5;3;
55276;PMS5003;41136;51.478;-2.610;2023-11-21T13:15:05;3;3;
55276;PMS5003;41136;51.478;-2.610;2023-11-21T13:17:30;3;3;
55276;PMS5003;41136;51.478;-2.610;2023-11-21T13:19:56;4;4;
55276;PMS5003;41136;51.478;-2.610;2023-11-21T13:22:21;4;4;
55276;PMS5003;41136;51.478;-2.610;2023-11-21T13:24:46;3;3;
55276;PMS5003;41136;51.478;-2.610;2023-11-21T13:27:12;5;3;
55276;PMS5003;41136;51.478;-2.610;2023-11-21T13:29:37;4;3;
55276;PMS5003;41136;51.478;-2.610;2023-11-21T13:32:02;3;3;
55276;PMS5003;41136;51.478;-2.610;2023-11-21T13:34:28;3;3;
55276;PMS5003;41136;51.478;-2.610;2023-11-21T13:36:53;5;3;
55276;PMS5003;41136;51.478;-2.610;2023-11-21T13:39:18;3;3;
55276;PMS5003;41136;51.478;-2.610;2023-11-21T13:41:44;2;2;
55276;PMS5003;41136;51.478;-2.610;2023-11-21T13:44:09;2;2;
55276;PMS5003;41136;51.478;-2.610;2023-11-21T13:46:34;5;4;
55276;PMS5003;41136;51.478;-2.610;2023-11-21T13:49:00;4;4;
55276;PMS5003;41136;51.478;-2.610;2023-11-21T13:51:25;3;2;
55276;PMS5003;41136;51.478;-2.610;2023-11-21T13:53:50;7;5;
55276;PMS5003;41136;51.478;-2.610;2023-11-21T13:56:16;4;4;
55276;PMS5003;41136;51.478;-2.610;2023-11-21T13:58:41;5;4;
55276;PMS5003;41136;51.478;-2.610;2023-11-21T14:01:06;3;3;
55276;PMS5003;41136;51.478;-2.610;2023-11-21T14:03:32;3;3;
55276;PMS5003;41136;51.478;-2.610;2023-11-21T14:05:57;3;2;
55276;PMS5003;41136;51.478;-2.610;2023-11-21T14:08:23;3;3;
55276;PMS5003;41136;51.478;-2.610;2023-11-21T14:10:48;2;2;
55276;PMS5003;41136;51.478;-2.610;2023-11-21T14:13:13;3;3;
55276;PMS5003;41136;51.478;-2.610;2023-11-21T14:15:39;4;3;
55276;PMS5003;41136;51.478;-2.610;2023-11-21T14:18:04;2;2;
55276;PMS5003;41136;51.478;-2.610;2023-11-21T14:20:29;2;2;
55276;PMS5003;41136;51.478;-2.610;2023-11-21T14:22:55;3;2;
55276;PMS5003;41136;51.478;-2.610;2023-11-21T14:25:20;4;4;
55276;PMS5003;41136;51.478;-2.610;2023-11-21T14:27:45;3;3;
55276;PMS5003;41136;51.478;-2.610;2023-11-21T14:30:11;2;2;
55276;PMS5003;41136;51.478;-2.610;2023-11-21T14:32:36;3;3;
55276;PMS5003;41136;51.478;-2.610;2023-11-21T14:35:01;2;2;
55276;PMS5003;41136;51.478;-2.610;2023-11-21T14:37:27;3;3;
55276;PMS5003;41136;51.478;-2.610;2023-11-21T14:39:52;4;3;
55276;PMS5003;41136;51.478;-2.610;2023-11-21T14:42:17;3;3;
55276;PMS5003;41136;51.478;-2.610;2023-11-21T14:44:43;3;3;
55276;PMS5003;41136;51.478;-2.610;2023-11-21T14:47:08;1;1;
55276;PMS5003;41136;51.478;-2.610;2023-11-21T14:49:33;8;8;
55276;PMS5003;41136;51.478;-2.610;2023-11-21T14:51:58;2;2;
55276;PMS5003;41136;51.478;-2.610;2023-11-21T14:54:24;2;2;
55276;PMS5003;41136;51.478;-2.610;2023-11-21T14:56:49;3;3;
55276;PMS5003;41136;51.478;-2.610;2023-11-21T14:59:14;5;4;
55276;PMS5003;41136;51.478;-2.610;2023-11-21T15:01:40;2;2;
55276;PMS5003;41136;51.478;-2.610;2023-11-21T15:04:05;3;3;
55276;PMS5003;41136;51.478;-2.610;2023-11-21T15:06:31;3;3;
55276;PMS5003;41136;51.478;-2.610;2023-11-21T15:08:57;4;4;
55276;PMS5003;41136;51.478;-2.610;2023-11-21T15:11:21;3;3;
55276;PMS5003;41136;51.478;-2.610;2023-11-21T15:13:47;4;4;
55276;PMS5003;41136;51.478;-2.610;2023-11-21T15:16:12;3;3;
55276;PMS5003;41136;51.478;-2.610;2023-11-21T15:18:37;4;4;
55276;PMS5003;41136;51.478;-2.610;2023-11-21T15:21:03;5;4;
55276;PMS5003;41136;51.478;-2.610;2023-11-21T15:23:28;3;3;
55276;PMS5003;41136;51.478;-2.610;2023-11-21T15:25:54;2;2;
55276;PMS5003;41136;51.478;-2.610;2023-11-21T15:28:19;6;6;
55276;PMS5003;41136;51.478;-2.610;2023-11-21T15:30:44;10;8;
55276;PMS5003;41136;51.478;-2.610;2023-11-21T15:33:09;3;3;
55276;PMS5003;41136;51.478;-2.610;2023-11-21T15:35:35;5;5;
55276;PMS5003;41136;51.478;-2.610;2023-11-21T15:38:00;3;3;
55276;PMS5003;41136;51.478;-2.610;2023-11-21T15:40:26;3;3;
55276;PMS5003;41136;51.478;-2.610;2023-11-21T15:42:51;3;3;
55276;PMS5003;41136;51.478;-2.610;2023-11-21T15:45:16;4;4;
55276;PMS5003;41136;51.478;-2.610;2023-11-21T15:47:42;5;3;
55276;PMS5003;41136;51.478;-2.610;2023-11-21T15:50:07;8;6;
55276;PMS5003;41136;51.478;-2.610;2023-11-21T15:52:32;4;3;
55276;PMS5003;41136;51.478;-2.610;2023-11-21T15:54:58;3;2;
55276;PMS5003;41136;51.478;-2.610;2023-11-21T15:57:23;4;4;
55276;PMS5003;41136;51.478;-2.610;2023-11-21T15:59:48;3;3;
55276;PMS5003;41136;51.478;-2.610;2023-11-21T16:02:13;12;9;
55276;PMS5003;41136;51.478;-2.610;2023-11-21T16:04:39;9;9;
55276;PMS5003;41136;51.478;-2.610;2023-11-21T16:07:04;8;7;
55276;PMS5003;41136;51.478;-2.610;2023-11-21T16:09:29;8;7;
55276;PMS5003;41136;51.478;-2.610;2023-11-21T16:11:55;8;6;
55276;PMS5003;41136;51.478;-2.610;2023-11-21T16:14:20;6;6;
55276;PMS5003;41136;51.478;-2.610;2023-11-21T16:16:45;5;5;
55276;PMS5003;41136;51.478;-2.610;2023-11-21T16:19:11;4;4;
55276;PMS5003;41136;51.478;-2.610;2023-11-21T16:21:36;6;6;
55276;PMS5003;41136;51.478;-2.610;2023-11-21T16:24:02;4;4;
55276;PMS5003;41136;51.478;-2.610;2023-11-21T16:26:27;4;4;
55276;PMS5003;41136;51.478;-2.610;2023-11-21T16:28:52;2;2;
55276;PMS5003;41136;51.478;-2.610;2023-11-21T16:31:21;4;4;
55276;PMS5003;41136;51.478;-2.610;2023-11-21T16:33:43;6;5;